createdAt,value
2023-03-03T00:01:15.454Z,97.73
2023-03-03T00:03:42.153Z,97.65
2023-03-03T00:06:11.010Z,96.23
2023-03-03T00:08:37.760Z,95.68
2023-03-03T00:11:06.303Z,96.47
2023-03-03T00:13:33.398Z,97.76
2023-03-03T00:16:14.151Z,97.18
2023-03-03T00:18:44.410Z,96.43
2023-03-03T00:21:26.550Z,93.84
2023-03-03T00:23:53.346Z,92.29
2023-03-03T00:26:29.384Z,91.92
2023-03-03T00:28:57.096Z,91.82
2023-03-03T00:31:34.566Z,91.66
2023-03-03T00:34:25.982Z,92.00
2023-03-03T00:36:57.200Z,93.30
2023-03-03T00:39:38.193Z,95.29
2023-03-03T00:42:15.104Z,97.51
2023-03-03T00:44:44.322Z,96.10
2023-03-03T00:47:18.080Z,96.58
2023-03-03T00:49:44.711Z,96.56
2023-03-03T00:52:17.428Z,97.50
2023-03-03T00:54:44.013Z,95.65
2023-03-03T00:57:14.490Z,94.70
2023-03-03T00:59:42.482Z,93.65
2023-03-03T01:02:09.111Z,94.89
2023-03-03T01:04:36.354Z,93.98
2023-03-03T01:07:03.281Z,93.66
2023-03-03T01:09:29.897Z,94.75
2023-03-03T01:11:56.442Z,94.73
2023-03-03T01:14:23.204Z,94.34
2023-03-03T01:16:51.142Z,94.61
2023-03-03T01:19:17.979Z,94.50
2023-03-03T01:21:44.452Z,93.38
2023-03-03T01:24:11.094Z,92.47
2023-03-03T01:26:37.610Z,92.97
2023-03-03T01:29:05.033Z,93.34
2023-03-03T01:31:31.596Z,96.33
2023-03-03T01:33:58.309Z,96.36
2023-03-03T01:36:26.221Z,96.76
2023-03-03T01:38:53.935Z,95.10
2023-03-03T01:41:21.111Z,93.63
2023-03-03T01:43:50.143Z,96.01
2023-03-03T01:46:38.559Z,95.77
2023-03-03T01:49:12.851Z,95.50
2023-03-03T01:51:47.146Z,96.27
2023-03-03T01:54:29.972Z,95.70
2023-03-03T01:57:01.110Z,95.19
2023-03-03T01:59:34.419Z,94.88
2023-03-03T02:02:01.267Z,95.61
2023-03-03T02:04:28.755Z,95.85
2023-03-03T02:07:00.549Z,94.22
2023-03-03T02:09:27.196Z,93.41
2023-03-03T02:11:59.490Z,93.07
2023-03-03T02:14:26.286Z,92.31
2023-03-03T02:16:52.845Z,91.73
2023-03-03T02:19:45.996Z,94.45
2023-03-03T02:22:16.827Z,94.46
2023-03-03T02:24:51.469Z,95.05
2023-03-03T02:27:19.697Z,95.29
2023-03-03T02:29:46.454Z,96.58
2023-03-03T02:32:13.065Z,95.79
2023-03-03T02:34:48.745Z,96.18
2023-03-03T02:37:15.323Z,96.21
2023-03-03T02:39:43.285Z,95.79
2023-03-03T02:42:21.913Z,96.06
2023-03-03T02:44:52.916Z,96.12
2023-03-03T02:47:19.470Z,95.55
2023-03-03T02:49:46.256Z,94.66
2023-03-03T02:52:14.853Z,96.71
2023-03-03T02:54:44.938Z,96.98
2023-03-03T02:57:11.482Z,98.14
2023-03-03T02:59:38.126Z,98.54
2023-03-03T03:02:09.806Z,98.79
2023-03-03T03:04:36.371Z,99.30
2023-03-03T03:07:03.971Z,98.05
2023-03-03T03:09:32.591Z,97.13
2023-03-03T03:12:02.383Z,96.52
2023-03-03T03:14:30.953Z,96.23
2023-03-03T03:16:58.807Z,96.72
2023-03-03T03:19:26.954Z,98.04
2023-03-03T03:21:53.551Z,96.63
2023-03-03T03:24:20.639Z,96.13
2023-03-03T03:26:53.649Z,96.67
2023-03-03T03:29:21.397Z,97.46
2023-03-03T03:31:47.975Z,98.64
2023-03-03T03:34:14.468Z,98.76
2023-03-03T03:36:41.010Z,98.41
2023-03-03T03:39:08.063Z,97.61
2023-03-03T03:41:37.599Z,95.92
2023-03-03T03:44:04.498Z,95.82
2023-03-03T03:46:31.081Z,96.76
2023-03-03T03:48:57.702Z,95.46
2023-03-03T03:51:25.043Z,96.41
2023-03-03T03:53:51.572Z,97.88
2023-03-03T03:56:18.135Z,98.60
2023-03-03T03:58:47.892Z,98.92
2023-03-03T04:01:15.347Z,97.26
2023-03-03T04:03:46.498Z,96.92
2023-03-03T04:06:16.975Z,98.22
2023-03-03T04:08:44.208Z,98.01
2023-03-03T04:11:11.211Z,97.33
2023-03-03T04:13:38.055Z,99.08
2023-03-03T04:16:07.035Z,98.24
2023-03-03T04:18:35.684Z,98.30
2023-03-03T04:21:03.151Z,98.90
2023-03-03T04:23:29.732Z,99.73
2023-03-03T04:25:56.234Z,98.91
2023-03-03T04:28:25.148Z,98.96
2023-03-03T04:30:52.074Z,98.57
2023-03-03T04:33:20.475Z,97.41
2023-03-03T04:35:48.347Z,97.13
2023-03-03T04:38:15.364Z,97.15
2023-03-03T04:40:42.832Z,98.78
2023-03-03T04:43:13.179Z,99.04
2023-03-03T04:45:39.798Z,99.79
2023-03-03T04:48:07.364Z,100.00
2023-03-03T04:50:34.947Z,99.84
2023-03-03T04:53:02.129Z,99.72
2023-03-03T04:55:28.679Z,100.00
2023-03-03T04:57:55.144Z,100.00
2023-03-03T05:00:22.255Z,100.00
2023-03-03T05:02:49.105Z,100.00
2023-03-03T05:05:16.370Z,100.00
2023-03-03T05:07:42.862Z,99.79
2023-03-03T05:10:10.010Z,100.00
2023-03-03T05:12:36.630Z,100.00
2023-03-03T05:15:03.216Z,100.00
2023-03-03T05:17:29.822Z,99.32
2023-03-03T05:19:57.281Z,99.03
2023-03-03T05:22:24.768Z,100.00
2023-03-03T05:24:51.613Z,100.00
2023-03-03T05:27:18.131Z,100.00
2023-03-03T05:29:44.930Z,100.00
2023-03-03T05:32:11.486Z,100.00
2023-03-03T05:34:38.204Z,100.00
2023-03-03T05:37:06.665Z,100.00
2023-03-03T05:39:34.052Z,100.00
2023-03-03T05:42:00.747Z,100.00
2023-03-03T05:44:27.439Z,100.00
2023-03-03T05:46:53.989Z,100.00
2023-03-03T05:49:20.525Z,100.00
2023-03-03T05:51:46.979Z,100.00
2023-03-03T05:54:13.532Z,99.90
2023-03-03T05:56:40.008Z,100.00
2023-03-03T05:59:06.488Z,99.56
2023-03-03T06:01:33.235Z,99.27
2023-03-03T06:03:59.756Z,100.00
2023-03-03T06:06:26.660Z,100.00
2023-03-03T06:08:55.520Z,100.00
2023-03-03T06:11:23.705Z,100.00
2023-03-03T06:13:50.208Z,100.00
2023-03-03T06:16:16.702Z,100.00
2023-03-03T06:18:43.162Z,100.00
2023-03-03T06:21:09.627Z,100.00
2023-03-03T06:23:36.117Z,100.00
2023-03-03T06:26:02.641Z,100.00
2023-03-03T06:28:29.165Z,100.00
2023-03-03T06:30:56.759Z,100.00
2023-03-03T06:33:23.742Z,100.00
2023-03-03T06:35:54.815Z,100.00
2023-03-03T06:38:21.424Z,100.00
2023-03-03T06:40:48.115Z,100.00
2023-03-03T06:43:14.644Z,100.00
2023-03-03T06:45:41.321Z,98.84
2023-03-03T06:48:07.843Z,98.76
2023-03-03T06:50:34.929Z,99.88
2023-03-03T06:53:21.846Z,100.00
2023-03-03T06:55:48.578Z,100.00
2023-03-03T06:58:20.633Z,98.48
2023-03-03T07:00:50.125Z,97.07
2023-03-03T07:03:19.982Z,95.44
2023-03-03T07:05:46.561Z,94.64
2023-03-03T07:08:20.993Z,93.97
2023-03-03T07:10:49.299Z,93.11
2023-03-03T07:13:27.254Z,92.32
2023-03-03T07:15:55.925Z,92.50
2023-03-03T07:18:40.803Z,88.41
2023-03-03T07:21:16.339Z,84.71
2023-03-03T07:23:44.547Z,82.08
2023-03-03T07:26:17.469Z,80.09
2023-03-03T07:28:52.153Z,72.34
2023-03-03T07:31:44.615Z,67.11
2023-03-03T07:34:24.294Z,64.86
2023-03-03T07:36:54.811Z,64.24
2023-03-03T07:39:25.495Z,62.72
2023-03-03T07:41:52.151Z,61.58
2023-03-03T07:44:26.161Z,59.54
2023-03-03T07:46:52.743Z,64.95
2023-03-03T07:49:37.140Z,61.62
2023-03-03T07:52:32.190Z,64.53
2023-03-03T07:55:19.772Z,62.21
2023-03-03T07:57:46.961Z,60.15
2023-03-03T08:00:16.658Z,61.68
2023-03-03T08:02:58.097Z,63.13
2023-03-03T08:05:28.687Z,63.94
2023-03-03T08:08:03.629Z,63.04
2023-03-03T08:10:48.335Z,60.28
2023-03-03T08:13:34.166Z,60.00
2023-03-03T08:16:09.810Z,57.70
2023-03-03T08:18:40.171Z,58.01
2023-03-03T08:21:19.734Z,58.79
2023-03-03T08:23:46.551Z,61.74
2023-03-03T08:26:13.998Z,59.28
2023-03-03T08:28:40.865Z,58.20
2023-03-03T08:31:18.374Z,57.70
2023-03-03T08:33:49.065Z,54.47
2023-03-03T08:36:15.558Z,55.99
2023-03-03T08:38:42.168Z,56.14
2023-03-03T08:41:08.777Z,56.07
2023-03-03T08:43:35.261Z,57.08
2023-03-03T08:46:05.205Z,55.73
2023-03-03T08:48:32.870Z,53.45
2023-03-03T08:51:00.217Z,53.34
2023-03-03T08:53:28.042Z,53.98
2023-03-03T08:55:55.227Z,50.58
2023-03-03T08:58:33.478Z,51.56
2023-03-03T09:01:01.162Z,52.84
2023-03-03T09:03:27.672Z,51.12
2023-03-03T09:05:54.165Z,47.49
2023-03-03T09:08:20.732Z,50.08
2023-03-03T09:10:47.191Z,48.16
2023-03-03T09:13:16.701Z,46.98
2023-03-03T09:15:44.838Z,50.88
2023-03-03T09:18:18.558Z,46.67
2023-03-03T09:20:48.206Z,48.45
2023-03-03T09:23:35.793Z,49.33
2023-03-03T09:26:29.724Z,48.64
2023-03-03T09:29:14.027Z,50.78
2023-03-03T09:31:51.757Z,53.67
2023-03-03T09:34:23.556Z,54.82
2023-03-03T09:36:52.307Z,54.40
2023-03-03T09:39:21.703Z,49.76
2023-03-03T09:42:26.045Z,50.33
2023-03-03T09:45:00.214Z,50.84
2023-03-03T09:47:47.606Z,52.51
2023-03-03T09:50:52.303Z,53.79
2023-03-03T09:53:24.538Z,55.15
2023-03-03T09:55:57.117Z,51.50
2023-03-03T09:58:30.663Z,50.85
2023-03-03T10:01:06.219Z,51.99
2023-03-03T10:03:32.663Z,52.03
2023-03-03T10:06:11.223Z,48.37
2023-03-03T10:09:00.737Z,47.67
2023-03-03T10:11:39.937Z,48.64
2023-03-03T10:14:15.473Z,46.27
2023-03-03T10:17:01.555Z,48.30
2023-03-03T10:19:40.606Z,48.41
2023-03-03T10:22:17.246Z,47.00
2023-03-03T10:25:05.075Z,44.67
2023-03-03T10:28:10.618Z,42.86
2023-03-03T10:31:06.815Z,42.40
2023-03-03T10:34:03.246Z,41.61
2023-03-03T10:37:00.724Z,43.46
2023-03-03T10:39:45.379Z,43.71
2023-03-03T10:42:28.083Z,40.59
2023-03-03T10:45:26.974Z,41.59
2023-03-03T10:47:56.312Z,43.11
2023-03-03T10:50:25.645Z,46.41
2023-03-03T10:53:27.461Z,47.40
2023-03-03T10:55:57.762Z,47.39
2023-03-03T10:58:56.688Z,47.03
2023-03-03T11:01:39.041Z,42.52
2023-03-03T11:04:14.474Z,42.66
2023-03-03T11:06:53.797Z,44.36
2023-03-03T11:09:57.427Z,43.85
2023-03-03T11:12:35.062Z,43.22
2023-03-03T11:15:25.089Z,41.18
2023-03-03T11:18:00.399Z,42.98
2023-03-03T11:20:36.051Z,41.66
2023-03-03T11:23:24.372Z,42.79
2023-03-03T11:26:08.008Z,41.81
2023-03-03T11:28:47.600Z,44.45
2023-03-03T11:31:48.178Z,44.04
2023-03-03T11:34:36.234Z,43.84
2023-03-03T11:37:15.502Z,42.50
2023-03-03T11:39:44.066Z,43.92
2023-03-03T11:42:42.865Z,42.90
2023-03-03T11:45:15.678Z,43.74
2023-03-03T11:47:59.381Z,41.41
2023-03-03T11:50:38.293Z,39.98
2023-03-03T11:53:31.794Z,39.89
2023-03-03T11:56:22.039Z,40.81
2023-03-03T11:59:04.653Z,40.33
2023-03-03T12:01:39.493Z,41.01
2023-03-03T12:04:18.856Z,41.09
2023-03-03T12:07:19.972Z,38.32
2023-03-03T12:10:07.277Z,37.65
2023-03-03T12:12:42.641Z,39.00
2023-03-03T12:15:31.266Z,36.48
2023-03-03T12:18:20.065Z,36.86
2023-03-03T12:20:56.723Z,39.21
2023-03-03T12:23:49.242Z,40.99
2023-03-03T12:26:39.680Z,38.53
2023-03-03T12:29:36.853Z,37.03
2023-03-03T12:32:32.912Z,36.23
2023-03-03T12:35:28.780Z,36.42
2023-03-03T12:38:08.159Z,35.92
2023-03-03T12:40:38.912Z,39.88
2023-03-03T12:43:30.133Z,37.54
2023-03-03T12:46:28.185Z,37.79
2023-03-03T12:48:55.349Z,35.54
2023-03-03T12:51:48.409Z,35.48
2023-03-03T12:55:04.721Z,35.58
2023-03-03T12:57:59.364Z,37.87
2023-03-03T13:00:38.188Z,37.46
2023-03-03T13:03:17.906Z,38.85
2023-03-03T13:06:21.182Z,39.68
2023-03-03T13:08:54.092Z,37.72
2023-03-03T13:11:54.064Z,36.14
2023-03-03T13:14:26.628Z,37.77
2023-03-03T13:17:31.246Z,37.79
2023-03-03T13:20:05.795Z,40.26
2023-03-03T13:22:32.352Z,44.10
2023-03-03T13:25:07.594Z,45.85
2023-03-03T13:27:44.078Z,46.03
2023-03-03T13:30:20.504Z,45.40
2023-03-03T13:33:05.140Z,45.21
2023-03-03T13:35:44.504Z,48.61
2023-03-03T13:38:20.893Z,47.76
2023-03-03T13:41:12.527Z,49.74
2023-03-03T13:44:01.908Z,48.67
2023-03-03T13:46:35.690Z,48.72
2023-03-03T13:49:20.810Z,48.19
2023-03-03T13:52:05.457Z,48.45
2023-03-03T13:54:50.381Z,48.90
2023-03-03T13:57:29.659Z,49.19
2023-03-03T14:00:18.332Z,51.68
2023-03-03T14:03:17.820Z,49.97
2023-03-03T14:05:48.662Z,50.15
2023-03-03T14:08:21.194Z,51.10
2023-03-03T14:11:11.100Z,50.22
2023-03-03T14:13:50.866Z,50.22
2023-03-03T14:16:30.195Z,50.28
2023-03-03T14:19:05.718Z,50.29
2023-03-03T14:21:38.258Z,50.59
2023-03-03T14:24:15.033Z,51.73
2023-03-03T14:26:56.800Z,50.54
2023-03-03T14:29:32.308Z,50.98
2023-03-03T14:32:01.769Z,51.93
2023-03-03T14:34:41.823Z,51.98
2023-03-03T14:37:44.707Z,51.82
2023-03-03T14:40:22.738Z,52.86
2023-03-03T14:42:52.085Z,52.93
2023-03-03T14:45:36.942Z,54.05
2023-03-03T14:48:23.583Z,53.05
2023-03-03T14:50:54.000Z,52.74
2023-03-03T14:53:34.182Z,53.13
2023-03-03T14:56:32.937Z,52.75
2023-03-03T14:59:20.100Z,53.97
2023-03-03T15:01:47.338Z,52.61
2023-03-03T15:04:13.899Z,54.33
2023-03-03T15:06:49.385Z,51.93
2023-03-03T15:09:30.523Z,52.67
2023-03-03T15:11:59.069Z,52.77
2023-03-03T15:14:30.468Z,52.57
2023-03-03T15:17:12.138Z,53.52
2023-03-03T15:19:46.389Z,54.06
2023-03-03T15:22:18.601Z,54.03
2023-03-03T15:25:14.584Z,54.55
2023-03-03T15:28:22.717Z,55.09
2023-03-03T15:30:52.419Z,55.32
2023-03-03T15:33:30.505Z,54.98
2023-03-03T15:36:28.898Z,55.39
2023-03-03T15:39:01.249Z,55.82
2023-03-03T15:41:43.676Z,55.15
2023-03-03T15:44:33.086Z,55.14
2023-03-03T15:47:24.391Z,55.82
2023-03-03T15:50:24.176Z,55.27
2023-03-03T15:53:01.176Z,55.80
2023-03-03T15:55:46.548Z,55.71
2023-03-03T15:58:49.255Z,55.81
2023-03-03T16:01:21.310Z,55.90
2023-03-03T16:03:54.640Z,56.33
2023-03-03T16:06:37.322Z,56.41
2023-03-03T16:09:28.800Z,57.22
2023-03-03T16:12:10.702Z,57.07
2023-03-03T16:14:56.320Z,57.66
2023-03-03T16:17:28.748Z,58.12
2023-03-03T16:20:28.673Z,57.34
2023-03-03T16:23:17.240Z,57.75
2023-03-03T16:26:01.945Z,56.92
2023-03-03T16:28:31.390Z,57.52
2023-03-03T16:31:03.901Z,58.10
2023-03-03T16:33:43.882Z,57.42
2023-03-03T16:36:21.794Z,57.13
2023-03-03T16:39:01.740Z,58.51
2023-03-03T16:41:46.405Z,57.81
2023-03-03T16:44:21.239Z,57.94
2023-03-03T16:46:49.731Z,58.50
2023-03-03T16:49:31.792Z,59.80
2023-03-03T16:52:12.004Z,59.48
2023-03-03T16:54:56.186Z,60.01
2023-03-03T16:57:43.677Z,60.41
2023-03-03T17:00:29.997Z,60.28
2023-03-03T17:03:14.953Z,60.61
2023-03-03T17:05:57.855Z,61.35
2023-03-03T17:08:44.569Z,62.23
2023-03-03T17:11:20.111Z,62.93
2023-03-03T17:14:40.697Z,65.89
2023-03-03T17:17:31.363Z,64.42
2023-03-03T17:20:17.750Z,64.97
2023-03-03T17:23:02.964Z,67.44
2023-03-03T17:25:45.493Z,69.08
2023-03-03T17:28:59.120Z,71.42
2023-03-03T17:31:48.625Z,69.27
2023-03-03T17:34:50.384Z,72.39
2023-03-03T17:37:26.959Z,70.46
2023-03-03T17:40:17.691Z,70.30
2023-03-03T17:42:53.205Z,70.09
2023-03-03T17:45:22.108Z,71.42
2023-03-03T17:48:09.036Z,71.94
2023-03-03T17:51:11.397Z,72.51
2023-03-03T17:53:44.070Z,74.91
2023-03-03T17:56:22.843Z,76.11
2023-03-03T17:59:18.755Z,75.84
2023-03-03T18:02:16.075Z,75.93
2023-03-03T18:05:13.911Z,74.79
2023-03-03T18:08:00.513Z,74.27
2023-03-03T18:10:48.760Z,75.38
2023-03-03T18:13:44.484Z,76.19
2023-03-03T18:16:48.584Z,76.19
2023-03-03T18:19:29.063Z,75.59
2023-03-03T18:22:06.743Z,75.72
2023-03-03T18:24:33.116Z,75.97
2023-03-03T18:27:24.592Z,76.33
2023-03-03T18:30:15.800Z,76.98
2023-03-03T18:32:47.185Z,77.29
2023-03-03T18:35:28.008Z,77.07
2023-03-03T18:37:55.283Z,76.84
2023-03-03T18:40:28.361Z,76.92
2023-03-03T18:42:55.501Z,76.93
2023-03-03T18:45:23.012Z,77.55
2023-03-03T18:48:09.894Z,78.38
2023-03-03T18:50:41.935Z,79.40
2023-03-03T18:53:30.442Z,79.29
2023-03-03T18:56:02.000Z,79.30
2023-03-03T18:58:36.286Z,79.57
2023-03-03T19:01:12.105Z,80.08
2023-03-03T19:03:47.519Z,79.74
2023-03-03T19:06:56.568Z,80.76
2023-03-03T19:09:46.613Z,80.85
2023-03-03T19:12:16.787Z,80.74
2023-03-03T19:14:48.614Z,81.81
2023-03-03T19:17:18.216Z,82.46
2023-03-03T19:20:05.963Z,82.02
2023-03-03T19:22:44.816Z,82.14
2023-03-03T19:25:18.652Z,82.72
2023-03-03T19:27:58.417Z,82.85
2023-03-03T19:30:43.543Z,83.90
2023-03-03T19:33:40.688Z,83.75
2023-03-03T19:36:39.560Z,83.97
2023-03-03T19:39:36.389Z,84.24
2023-03-03T19:42:28.230Z,85.33
2023-03-03T19:44:57.712Z,85.46
2023-03-03T19:48:02.382Z,84.92
2023-03-03T19:50:59.847Z,84.90
2023-03-03T19:53:41.498Z,85.64
2023-03-03T19:56:20.493Z,85.66
2023-03-03T19:58:59.565Z,85.67
2023-03-03T20:01:47.535Z,86.29
2023-03-03T20:04:38.677Z,87.15
2023-03-03T20:07:24.893Z,87.83
2023-03-03T20:10:16.136Z,87.47
2023-03-03T20:12:53.140Z,87.44
2023-03-03T20:15:32.388Z,88.33
2023-03-03T20:18:01.589Z,87.91
2023-03-03T20:20:46.831Z,88.11
2023-03-03T20:23:32.189Z,88.92
2023-03-03T20:26:13.843Z,88.24
2023-03-03T20:29:14.435Z,88.07
2023-03-03T20:31:50.089Z,90.22
2023-03-03T20:34:43.951Z,91.23
2023-03-03T20:37:17.211Z,91.71
2023-03-03T20:40:02.014Z,92.86
2023-03-03T20:43:00.316Z,92.84
2023-03-03T20:45:29.755Z,91.69
2023-03-03T20:48:06.616Z,91.93
2023-03-03T20:50:49.950Z,92.29
2023-03-03T20:53:30.943Z,92.89
2023-03-03T20:56:09.468Z,92.77
2023-03-03T20:59:13.643Z,92.94
2023-03-03T21:01:58.414Z,94.50
2023-03-03T21:04:30.890Z,95.27
2023-03-03T21:06:58.409Z,95.66
2023-03-03T21:09:35.168Z,96.05
2023-03-03T21:12:23.125Z,96.69
2023-03-03T21:15:04.001Z,96.15
2023-03-03T21:17:31.750Z,97.39
2023-03-03T21:20:20.493Z,97.38
2023-03-03T21:22:47.032Z,97.61
2023-03-03T21:25:43.329Z,97.37
2023-03-03T21:28:15.072Z,97.46
2023-03-03T21:31:11.241Z,98.86
2023-03-03T21:33:40.380Z,98.03
2023-03-03T21:36:07.298Z,98.14
2023-03-03T21:38:34.811Z,98.83
2023-03-03T21:41:02.585Z,99.29
2023-03-03T21:43:41.560Z,99.21
2023-03-03T21:46:08.471Z,98.10
2023-03-03T21:48:35.081Z,97.72
2023-03-03T21:51:01.685Z,98.80
2023-03-03T21:53:29.575Z,98.35
2023-03-03T21:55:56.230Z,98.95
2023-03-03T21:58:22.723Z,97.77
2023-03-03T22:00:49.225Z,99.01
2023-03-03T22:03:16.794Z,99.96
2023-03-03T22:05:43.741Z,100.00
2023-03-03T22:08:10.198Z,100.00
2023-03-03T22:10:36.648Z,100.00
2023-03-03T22:13:03.197Z,100.00
2023-03-03T22:15:33.167Z,100.00
2023-03-03T22:18:00.683Z,100.00
2023-03-03T22:20:27.313Z,100.00
2023-03-03T22:22:53.905Z,100.00
2023-03-03T22:25:20.404Z,100.00
2023-03-03T22:27:46.902Z,100.00
2023-03-03T22:30:13.894Z,100.00
2023-03-03T22:32:40.364Z,100.00
2023-03-03T22:35:07.579Z,100.00
2023-03-03T22:37:34.011Z,100.00
2023-03-03T22:40:01.279Z,100.00
2023-03-03T22:42:27.903Z,100.00
2023-03-03T22:44:54.448Z,100.00
2023-03-03T22:47:20.923Z,100.00
2023-03-03T22:49:47.370Z,100.00
2023-03-03T22:52:13.806Z,100.00
2023-03-03T22:54:40.734Z,100.00
2023-03-03T22:57:07.170Z,100.00
2023-03-03T22:59:34.504Z,100.00
2023-03-03T23:02:01.007Z,100.00
2023-03-03T23:04:27.575Z,100.00
2023-03-03T23:06:54.075Z,100.00
2023-03-03T23:09:20.599Z,100.00
2023-03-03T23:11:47.023Z,100.00
2023-03-03T23:14:13.570Z,100.00
2023-03-03T23:16:40.083Z,100.00
2023-03-03T23:19:06.536Z,100.00
2023-03-03T23:21:33.052Z,100.00
2023-03-03T23:23:59.562Z,100.00
2023-03-03T23:26:26.185Z,100.00
2023-03-03T23:28:52.664Z,100.00
2023-03-03T23:31:19.204Z,100.00
2023-03-03T23:33:45.751Z,100.00
2023-03-03T23:36:12.439Z,100.00
2023-03-03T23:38:39.493Z,100.00
2023-03-03T23:41:06.735Z,100.00
2023-03-03T23:43:33.576Z,100.00
2023-03-03T23:46:00.092Z,100.00
2023-03-03T23:48:26.605Z,100.00
2023-03-03T23:50:53.055Z,100.00
2023-03-03T23:53:19.578Z,100.00
2023-03-03T23:55:46.058Z,100.00
2023-03-03T23:58:12.659Z,100.00
